sensor_id;sensor_type;location;lat;lon;timestamp;pressure;altitude;pressure_sealevel;temperature;humidity
12897;BME280;6516;35.028;32.372;2022-12-29T00:00:07;101053.38;;;11.45;84.15
12897;BME280;6516;35.028;32.372;2022-12-29T00:02:39;101061.41;;;11.28;84.86
12897;BME280;6516;35.028;32.372;2022-12-29T00:05:08;101050.91;;;11.18;85.45
12897;BME280;6516;35.028;32.372;2022-12-29T00:07:36;101051.84;;;11.09;85.98
12897;BME280;6516;35.028;32.372;2022-12-29T00:10:06;101047.44;;;11.13;86.11
12897;BME280;6516;35.028;32.372;2022-12-29T00:12:34;101050.97;;;11.12;86.61
12897;BME280;6516;35.028;32.372;2022-12-29T00:15:19;101059.72;;;11.13;86.51
12897;BME280;6516;35.028;32.372;2022-12-29T00:18:07;101052.72;;;11.09;86.66
12897;BME280;6516;35.028;32.372;2022-12-29T00:20:35;101051.88;;;11.04;86.82
12897;BME280;6516;35.028;32.372;2022-12-29T00:23:20;101054.50;;;11.07;86.84
12897;BME280;6516;35.028;32.372;2022-12-29T00:26:12;101057.13;;;11.06;86.77
12897;BME280;6516;35.028;32.372;2022-12-29T00:28:58;101046.59;;;11.06;86.88
12897;BME280;6516;35.028;32.372;2022-12-29T00:31:43;101041.31;;;11.04;87.05
12897;BME280;6516;35.028;32.372;2022-12-29T00:34:29;101049.31;;;10.85;87.07
12897;BME280;6516;35.028;32.372;2022-12-29T00:37:14;101050.28;;;10.70;87.55
12897;BME280;6516;35.028;32.372;2022-12-29T00:39:41;101054.69;;;10.62;88.13
12897;BME280;6516;35.028;32.372;2022-12-29T00:42:26;101045.94;;;10.59;88.19
12897;BME280;6516;35.028;32.372;2022-12-29T00:45:19;101047.72;;;10.49;89.11
12897;BME280;6516;35.028;32.372;2022-12-29T00:47:47;101041.59;;;10.44;89.61
12897;BME280;6516;35.028;32.372;2022-12-29T00:50:16;101045.13;;;10.43;89.71
12897;BME280;6516;35.028;32.372;2022-12-29T00:52:45;101043.34;;;10.42;89.72
12897;BME280;6516;35.028;32.372;2022-12-29T00:55:12;101038.06;;;10.50;89.47
12897;BME280;6516;35.028;32.372;2022-12-29T00:57:40;101031.03;;;10.52;89.00
12897;BME280;6516;35.028;32.372;2022-12-29T01:00:09;101037.19;;;10.54;88.71
12897;BME280;6516;35.028;32.372;2022-12-29T01:02:38;101031.97;;;10.43;89.24
12897;BME280;6516;35.028;32.372;2022-12-29T01:05:06;101033.72;;;10.37;90.16
12897;BME280;6516;35.028;32.372;2022-12-29T01:07:35;101031.97;;;10.33;90.44
12897;BME280;6516;35.028;32.372;2022-12-29T01:10:04;101026.69;;;10.40;90.34
12897;BME280;6516;35.028;32.372;2022-12-29T01:12:36;101024.06;;;10.42;90.06
12897;BME280;6516;35.028;32.372;2022-12-29T01:15:08;101022.31;;;10.33;90.39
12897;BME280;6516;35.028;32.372;2022-12-29T01:17:38;101016.19;;;10.34;90.53
12897;BME280;6516;35.028;32.372;2022-12-29T01:20:06;101017.94;;;10.38;90.24
12897;BME280;6516;35.028;32.372;2022-12-29T01:22:36;101016.19;;;10.34;90.30
12897;BME280;6516;35.028;32.372;2022-12-29T01:25:04;101010.91;;;10.37;90.28
12897;BME280;6516;35.028;32.372;2022-12-29T01:27:33;101014.41;;;10.36;90.19
12897;BME280;6516;35.028;32.372;2022-12-29T01:30:01;101010.91;;;10.45;89.91
12897;BME280;6516;35.028;32.372;2022-12-29T01:32:28;101014.41;;;10.39;89.46
12897;BME280;6516;35.028;32.372;2022-12-29T01:34:56;100997.75;;;10.42;89.42
12897;BME280;6516;35.028;32.372;2022-12-29T01:37:24;101009.16;;;10.39;89.84
12897;BME280;6516;35.028;32.372;2022-12-29T01:39:53;100994.31;;;10.20;90.27
12897;BME280;6516;35.028;32.372;2022-12-29T01:42:24;101003.09;;;10.07;91.07
12897;BME280;6516;35.028;32.372;2022-12-29T01:44:55;100997.81;;;10.01;91.60
12897;BME280;6516;35.028;32.372;2022-12-29T01:47:29;100991.69;;;10.11;91.43
12897;BME280;6516;35.028;32.372;2022-12-29T01:50:03;100989.94;;;10.16;91.86
12897;BME280;6516;35.028;32.372;2022-12-29T01:52:35;100991.66;;;10.23;91.73
12897;BME280;6516;35.028;32.372;2022-12-29T01:55:08;100985.47;;;10.35;91.02
12897;BME280;6516;35.028;32.372;2022-12-29T01:57:38;100989.84;;;10.43;90.73
12897;BME280;6516;35.028;32.372;2022-12-29T02:00:10;100981.06;;;10.41;90.21
12897;BME280;6516;35.028;32.372;2022-12-29T02:02:41;100989.84;;;10.40;89.85
12897;BME280;6516;35.028;32.372;2022-12-29T02:05:12;100975.78;;;10.46;89.94
12897;BME280;6516;35.028;32.372;2022-12-29T02:07:43;100981.94;;;10.45;89.25
12897;BME280;6516;35.028;32.372;2022-12-29T02:10:14;100980.16;;;10.45;89.22
12897;BME280;6516;35.028;32.372;2022-12-29T02:12:42;100974.03;;;10.45;88.87
12897;BME280;6516;35.028;32.372;2022-12-29T02:15:10;100976.72;;;10.30;89.28
12897;BME280;6516;35.028;32.372;2022-12-29T02:17:51;100969.72;;;10.29;89.63
12897;BME280;6516;35.028;32.372;2022-12-29T02:20:42;100971.44;;;10.34;89.31
12897;BME280;6516;35.028;32.372;2022-12-29T02:23:46;100965.28;;;10.35;88.97
12897;BME280;6516;35.028;32.372;2022-12-29T02:27:07;100962.63;;;10.40;88.57
12897;BME280;6516;35.028;32.372;2022-12-29T02:30:07;100961.69;;;10.57;87.80
12897;BME280;6516;35.028;32.372;2022-12-29T02:32:48;100966.03;;;10.66;87.17
12897;BME280;6516;35.028;32.372;2022-12-29T02:35:25;100962.50;;;10.67;86.69
12897;BME280;6516;35.028;32.372;2022-12-29T02:38:03;100966.03;;;10.64;86.08
12897;BME280;6516;35.028;32.372;2022-12-29T02:40:41;100967.03;;;10.38;87.01
12897;BME280;6516;35.028;32.372;2022-12-29T02:43:19;100970.59;;;10.26;87.55
12897;BME280;6516;35.028;32.372;2022-12-29T02:45:54;100970.56;;;10.32;87.38
12897;BME280;6516;35.028;32.372;2022-12-29T02:48:30;100972.38;;;10.24;87.57
12897;BME280;6516;35.028;32.372;2022-12-29T02:51:04;100969.75;;;10.08;88.02
12897;BME280;6516;35.028;32.372;2022-12-29T02:53:36;100971.50;;;10.01;88.38
12897;BME280;6516;35.028;32.372;2022-12-29T02:56:21;100969.75;;;10.08;88.19
12897;BME280;6516;35.028;32.372;2022-12-29T02:58:49;100977.66;;;10.12;87.76
12897;BME280;6516;35.028;32.372;2022-12-29T03:01:23;100977.66;;;10.15;87.81
12897;BME280;6516;35.028;32.372;2022-12-29T03:04:14;100974.13;;;10.22;88.05
12897;BME280;6516;35.028;32.372;2022-12-29T03:06:54;100983.72;;;10.34;87.57
12897;BME280;6516;35.028;32.372;2022-12-29T03:09:32;100978.41;;;10.46;87.05
12897;BME280;6516;35.028;32.372;2022-12-29T03:12:13;100981.06;;;10.44;86.71
12897;BME280;6516;35.028;32.372;2022-12-29T03:14:54;100986.31;;;10.41;86.88
12897;BME280;6516;35.028;32.372;2022-12-29T03:17:50;100974.94;;;10.41;87.05
12897;BME280;6516;35.028;32.372;2022-12-29T03:20:26;100980.19;;;10.35;87.57
12897;BME280;6516;35.028;32.372;2022-12-29T03:23:00;100978.47;;;10.34;87.83
12897;BME280;6516;35.028;32.372;2022-12-29T03:25:31;100987.22;;;10.42;87.63
12897;BME280;6516;35.028;32.372;2022-12-29T03:28:02;100987.22;;;10.45;87.57
12897;BME280;6516;35.028;32.372;2022-12-29T03:30:34;100985.44;;;10.48;87.26
12897;BME280;6516;35.028;32.372;2022-12-29T03:33:06;100986.28;;;10.53;87.11
12897;BME280;6516;35.028;32.372;2022-12-29T03:35:40;100986.28;;;10.52;87.29
12897;BME280;6516;35.028;32.372;2022-12-29T03:38:12;100988.03;;;10.57;87.58
12897;BME280;6516;35.028;32.372;2022-12-29T03:40:44;100989.72;;;10.63;87.21
12897;BME280;6516;35.028;32.372;2022-12-29T03:43:14;100995.88;;;10.65;86.90
12897;BME280;6516;35.028;32.372;2022-12-29T03:45:42;101004.59;;;10.76;86.30
12897;BME280;6516;35.028;32.372;2022-12-29T03:48:10;100996.72;;;10.74;85.81
12897;BME280;6516;35.028;32.372;2022-12-29T03:50:39;100999.31;;;10.77;85.92
12897;BME280;6516;35.028;32.372;2022-12-29T03:53:07;101007.25;;;10.68;85.97
12897;BME280;6516;35.028;32.372;2022-12-29T03:55:35;101007.31;;;10.61;86.26
12897;BME280;6516;35.028;32.372;2022-12-29T03:58:02;101013.50;;;10.54;86.43
12897;BME280;6516;35.028;32.372;2022-12-29T04:00:30;101019.69;;;10.36;87.09
12897;BME280;6516;35.028;32.372;2022-12-29T04:02:58;101019.69;;;10.36;87.13
12897;BME280;6516;35.028;32.372;2022-12-29T04:05:26;101022.34;;;10.32;87.45
12897;BME280;6516;35.028;32.372;2022-12-29T04:07:55;101021.44;;;10.28;88.11
12897;BME280;6516;35.028;32.372;2022-12-29T04:10:23;101025.81;;;10.31;88.35
12897;BME280;6516;35.028;32.372;2022-12-29T04:12:51;101026.72;;;10.33;88.15
12897;BME280;6516;35.028;32.372;2022-12-29T04:15:18;101033.69;;;10.40;87.48
12897;BME280;6516;35.028;32.372;2022-12-29T04:17:46;101025.81;;;10.31;87.64
12897;BME280;6516;35.028;32.372;2022-12-29T04:20:14;101035.47;;;10.33;87.34
12897;BME280;6516;35.028;32.372;2022-12-29T04:23:01;101043.38;;;10.33;87.59
12897;BME280;6516;35.028;32.372;2022-12-29T04:25:30;101036.34;;;10.34;87.78
12897;BME280;6516;35.028;32.372;2022-12-29T04:27:58;101041.63;;;10.32;88.07
12897;BME280;6516;35.028;32.372;2022-12-29T04:30:26;101041.63;;;10.31;88.11
12897;BME280;6516;35.028;32.372;2022-12-29T04:32:54;101046.94;;;10.20;87.91
12897;BME280;6516;35.028;32.372;2022-12-29T04:35:22;101046.91;;;10.13;88.03
12897;BME280;6516;35.028;32.372;2022-12-29T04:37:50;101046.06;;;10.11;88.83
12897;BME280;6516;35.028;32.372;2022-12-29T04:40:19;101047.78;;;10.22;89.26
12897;BME280;6516;35.028;32.372;2022-12-29T04:42:47;101053.00;;;10.37;88.74
12897;BME280;6516;35.028;32.372;2022-12-29T04:45:15;101056.50;;;10.44;88.33
12897;BME280;6516;35.028;32.372;2022-12-29T04:47:43;101046.84;;;10.52;87.75
12897;BME280;6516;35.028;32.372;2022-12-29T04:50:10;101051.25;;;10.36;88.06
12897;BME280;6516;35.028;32.372;2022-12-29T04:52:38;101060.03;;;10.35;87.83
12897;BME280;6516;35.028;32.372;2022-12-29T04:55:07;101047.78;;;10.30;88.72
12897;BME280;6516;35.028;32.372;2022-12-29T04:57:37;101054.81;;;10.20;89.65
12897;BME280;6516;35.028;32.372;2022-12-29T05:00:05;101053.94;;;10.11;89.66
12897;BME280;6516;35.028;32.372;2022-12-29T05:02:35;101060.94;;;10.01;90.02
12897;BME280;6516;35.028;32.372;2022-12-29T05:05:04;101057.44;;;10.01;90.07
12897;BME280;6516;35.028;32.372;2022-12-29T05:07:32;101065.34;;;9.90;90.32
12897;BME280;6516;35.028;32.372;2022-12-29T05:10:03;101063.59;;;9.86;90.21
12897;BME280;6516;35.028;32.372;2022-12-29T05:12:32;101066.22;;;9.80;90.67
12897;BME280;6516;35.028;32.372;2022-12-29T05:15:03;101076.75;;;9.88;90.66
12897;BME280;6516;35.028;32.372;2022-12-29T05:17:32;101082.88;;;9.96;90.62
12897;BME280;6516;35.028;32.372;2022-12-29T05:19:59;101086.41;;;10.05;90.59
12897;BME280;6516;35.028;32.372;2022-12-29T05:22:27;101085.53;;;10.12;90.32
12897;BME280;6516;35.028;32.372;2022-12-29T05:24:55;101082.91;;;10.14;90.12
12897;BME280;6516;35.028;32.372;2022-12-29T05:27:23;101081.13;;;10.20;90.21
12897;BME280;6516;35.028;32.372;2022-12-29T05:29:51;101091.66;;;10.29;90.27
12897;BME280;6516;35.028;32.372;2022-12-29T05:32:20;101087.22;;;10.37;89.99
12897;BME280;6516;35.028;32.372;2022-12-29T05:34:48;101084.56;;;10.49;89.87
12897;BME280;6516;35.028;32.372;2022-12-29T05:37:16;101088.03;;;10.60;89.64
12897;BME280;6516;35.028;32.372;2022-12-29T05:39:43;101086.28;;;10.74;89.12
12897;BME280;6516;35.028;32.372;2022-12-29T05:42:11;101087.09;;;10.88;88.56
12897;BME280;6516;35.028;32.372;2022-12-29T05:44:39;101084.38;;;11.07;88.27
12897;BME280;6516;35.028;32.372;2022-12-29T05:47:07;101083.44;;;11.18;87.68
12897;BME280;6516;35.028;32.372;2022-12-29T05:49:36;101085.06;;;11.36;87.31
12897;BME280;6516;35.028;32.372;2022-12-29T05:52:04;101091.13;;;11.50;86.95
12897;BME280;6516;35.028;32.372;2022-12-29T05:54:32;101088.47;;;11.62;87.10
12897;BME280;6516;35.028;32.372;2022-12-29T05:56:59;101096.31;;;11.71;86.10
12897;BME280;6516;35.028;32.372;2022-12-29T05:59:27;101091.81;;;11.85;84.84
12897;BME280;6516;35.028;32.372;2022-12-29T06:01:55;101094.31;;;11.97;84.94
12897;BME280;6516;35.028;32.372;2022-12-29T06:04:23;101093.34;;;12.10;84.84
12897;BME280;6516;35.028;32.372;2022-12-29T06:06:52;101093.22;;;12.22;85.02
12897;BME280;6516;35.028;32.372;2022-12-29T06:09:19;101088.56;;;12.48;84.69
12897;BME280;6516;35.028;32.372;2022-12-29T06:11:47;101092.78;;;12.62;81.71
12897;BME280;6516;35.028;32.372;2022-12-29T06:14:15;101093.47;;;12.82;80.61
12897;BME280;6516;35.028;32.372;2022-12-29T06:16:43;101097.66;;;13.03;80.55
12897;BME280;6516;35.028;32.372;2022-12-29T06:19:11;101105.25;;;13.25;79.68
12897;BME280;6516;35.028;32.372;2022-12-29T06:21:38;101097.94;;;13.47;79.42
12897;BME280;6516;35.028;32.372;2022-12-29T06:24:08;101102.84;;;13.71;78.10
12897;BME280;6516;35.028;32.372;2022-12-29T06:26:36;101099.81;;;13.93;76.73
12897;BME280;6516;35.028;32.372;2022-12-29T06:29:05;101110.97;;;14.13;76.75
12897;BME280;6516;35.028;32.372;2022-12-29T06:31:34;101107.88;;;14.40;77.00
12897;BME280;6516;35.028;32.372;2022-12-29T06:34:02;101103.03;;;14.63;75.50
12897;BME280;6516;35.028;32.372;2022-12-29T06:36:33;101111.44;;;14.85;72.75
12897;BME280;6516;35.028;32.372;2022-12-29T06:39:01;101107.31;;;15.13;71.76
12897;BME280;6516;35.028;32.372;2022-12-29T06:41:30;101098.03;;;15.35;70.22
12897;BME280;6516;35.028;32.372;2022-12-29T06:43:58;101100.13;;;15.59;70.64
12897;BME280;6516;35.028;32.372;2022-12-29T06:46:26;101106.59;;;15.85;70.08
12897;BME280;6516;35.028;32.372;2022-12-29T06:48:54;101098.84;;;16.11;69.17
12897;BME280;6516;35.028;32.372;2022-12-29T06:51:22;101108.84;;;16.35;68.13
12897;BME280;6516;35.028;32.372;2022-12-29T06:53:50;101108.28;;;16.58;66.55
12897;BME280;6516;35.028;32.372;2022-12-29T06:56:19;101105.88;;;16.79;65.43
12897;BME280;6516;35.028;32.372;2022-12-29T06:58:49;101117.81;;;16.97;61.74
12897;BME280;6516;35.028;32.372;2022-12-29T07:01:17;101118.88;;;17.20;63.65
12897;BME280;6516;35.028;32.372;2022-12-29T07:03:44;101112.00;;;17.44;63.07
12897;BME280;6516;35.028;32.372;2022-12-29T07:06:12;101117.16;;;17.77;63.32
12897;BME280;6516;35.028;32.372;2022-12-29T07:08:40;101120.97;;;17.96;62.12
12897;BME280;6516;35.028;32.372;2022-12-29T07:11:08;101118.56;;;18.16;61.80
12897;BME280;6516;35.028;32.372;2022-12-29T07:13:36;101122.84;;;18.46;60.92
12897;BME280;6516;35.028;32.372;2022-12-29T07:16:09;101120.72;;;18.82;60.54
12897;BME280;6516;35.028;32.372;2022-12-29T07:18:37;101119.59;;;18.87;60.79
12897;BME280;6516;35.028;32.372;2022-12-29T07:21:05;101123.03;;;19.15;59.83
12897;BME280;6516;35.028;32.372;2022-12-29T07:23:33;101120.09;;;19.23;56.61
12897;BME280;6516;35.028;32.372;2022-12-29T07:26:01;101104.59;;;19.32;56.16
12897;BME280;6516;35.028;32.372;2022-12-29T07:28:30;101117.44;;;19.46;55.82
12897;BME280;6516;35.028;32.372;2022-12-29T07:30:58;101115.03;;;19.83;55.08
12897;BME280;6516;35.028;32.372;2022-12-29T07:33:30;101110.06;;;19.74;51.69
12897;BME280;6516;35.028;32.372;2022-12-29T07:35:58;101122.31;;;19.80;51.18
12897;BME280;6516;35.028;32.372;2022-12-29T07:38:26;101113.84;;;19.90;51.18
12897;BME280;6516;35.028;32.372;2022-12-29T07:40:57;101113.41;;;20.01;51.37
12897;BME280;6516;35.028;32.372;2022-12-29T07:43:25;101113.16;;;20.50;50.83
12897;BME280;6516;35.028;32.372;2022-12-29T07:45:53;101111.47;;;20.67;49.90
12897;BME280;6516;35.028;32.372;2022-12-29T07:48:21;101105.81;;;20.75;50.83
12897;BME280;6516;35.028;32.372;2022-12-29T07:50:50;101107.47;;;20.77;50.83
12897;BME280;6516;35.028;32.372;2022-12-29T07:53:19;101108.13;;;20.82;50.22
12897;BME280;6516;35.028;32.372;2022-12-29T07:55:47;101111.03;;;20.98;48.87
12897;BME280;6516;35.028;32.372;2022-12-29T07:58:15;101103.84;;;20.98;49.09
12897;BME280;6516;35.028;32.372;2022-12-29T08:00:42;101099.63;;;21.13;46.93
12897;BME280;6516;35.028;32.372;2022-12-29T08:03:10;101103.63;;;21.23;47.55
12897;BME280;6516;35.028;32.372;2022-12-29T08:05:38;101101.75;;;21.25;47.00
12897;BME280;6516;35.028;32.372;2022-12-29T08:08:07;101097.09;;;21.28;46.96
12897;BME280;6516;35.028;32.372;2022-12-29T08:10:35;101098.72;;;21.32;47.32
12897;BME280;6516;35.028;32.372;2022-12-29T08:13:03;101094.66;;;21.42;46.79
12897;BME280;6516;35.028;32.372;2022-12-29T08:15:31;101102.25;;;21.51;47.40
12897;BME280;6516;35.028;32.372;2022-12-29T08:17:59;101090.69;;;21.69;47.16
12897;BME280;6516;35.028;32.372;2022-12-29T08:20:27;101095.69;;;21.77;45.80
12897;BME280;6516;35.028;32.372;2022-12-29T08:22:55;101084.94;;;22.12;45.48
12897;BME280;6516;35.028;32.372;2022-12-29T08:25:24;101084.47;;;22.04;45.28
12897;BME280;6516;35.028;32.372;2022-12-29T08:27:52;101081.63;;;21.90;46.43
12897;BME280;6516;35.028;32.372;2022-12-29T08:30:19;101081.44;;;21.93;47.13
12897;BME280;6516;35.028;32.372;2022-12-29T08:32:47;101078.47;;;21.99;46.34
12897;BME280;6516;35.028;32.372;2022-12-29T08:35:15;101068.94;;;22.11;44.82
12897;BME280;6516;35.028;32.372;2022-12-29T08:37:43;101066.16;;;22.12;45.76
12897;BME280;6516;35.028;32.372;2022-12-29T08:40:11;101066.03;;;22.15;45.57
12897;BME280;6516;35.028;32.372;2022-12-29T08:42:41;101062.09;;;22.22;45.97
12897;BME280;6516;35.028;32.372;2022-12-29T08:45:09;101058.31;;;22.26;45.92
12897;BME280;6516;35.028;32.372;2022-12-29T08:47:37;101061.31;;;22.37;45.54
12897;BME280;6516;35.028;32.372;2022-12-29T08:50:06;101056.88;;;22.36;45.86
12897;BME280;6516;35.028;32.372;2022-12-29T08:52:34;101053.00;;;22.42;45.78
12897;BME280;6516;35.028;32.372;2022-12-29T08:55:03;101049.31;;;22.44;45.44
12897;BME280;6516;35.028;32.372;2022-12-29T08:57:31;101049.97;;;22.49;45.57
12897;BME280;6516;35.028;32.372;2022-12-29T09:00:00;101048.69;;;22.56;45.53
12897;BME280;6516;35.028;32.372;2022-12-29T09:02:28;101045.84;;;22.59;45.15
12897;BME280;6516;35.028;32.372;2022-12-29T09:04:56;101046.16;;;22.36;45.28
12897;BME280;6516;35.028;32.372;2022-12-29T09:07:24;101040.00;;;22.51;45.38
12897;BME280;6516;35.028;32.372;2022-12-29T09:09:52;101037.00;;;22.57;44.96
12897;BME280;6516;35.028;32.372;2022-12-29T09:12:20;101033.66;;;22.69;44.03
12897;BME280;6516;35.028;32.372;2022-12-29T09:14:48;101029.25;;;22.68;42.86
12897;BME280;6516;35.028;32.372;2022-12-29T09:17:18;101029.00;;;22.73;44.37
12897;BME280;6516;35.028;32.372;2022-12-29T09:20:04;101023.66;;;22.88;44.06
12897;BME280;6516;35.028;32.372;2022-12-29T09:22:32;101019.94;;;22.91;43.03
12897;BME280;6516;35.028;32.372;2022-12-29T09:25:00;101021.91;;;23.04;43.30
12897;BME280;6516;35.028;32.372;2022-12-29T09:27:28;101014.44;;;23.09;41.97
12897;BME280;6516;35.028;32.372;2022-12-29T09:29:56;101015.66;;;23.04;42.97
12897;BME280;6516;35.028;32.372;2022-12-29T09:32:25;101015.13;;;22.97;42.94
12897;BME280;6516;35.028;32.372;2022-12-29T09:34:53;101016.16;;;22.62;44.34
12897;BME280;6516;35.028;32.372;2022-12-29T09:37:21;101015.19;;;22.29;44.33
12897;BME280;6516;35.028;32.372;2022-12-29T09:39:49;101005.34;;;22.30;44.75
12897;BME280;6516;35.028;32.372;2022-12-29T09:42:21;101004.06;;;22.37;45.30
12897;BME280;6516;35.028;32.372;2022-12-29T09:45:07;101001.09;;;22.43;44.46
12897;BME280;6516;35.028;32.372;2022-12-29T09:47:40;100989.97;;;22.50;44.28
12897;BME280;6516;35.028;32.372;2022-12-29T09:50:14;100983.53;;;22.70;44.05
12897;BME280;6516;35.028;32.372;2022-12-29T09:52:48;100992.56;;;22.52;44.87
12897;BME280;6516;35.028;32.372;2022-12-29T09:55:22;100983.00;;;22.63;44.42
12897;BME280;6516;35.028;32.372;2022-12-29T09:57:54;100983.56;;;22.85;44.06
12897;BME280;6516;35.028;32.372;2022-12-29T10:00:36;100985.53;;;22.82;44.19
12897;BME280;6516;35.028;32.372;2022-12-29T10:03:13;100984.53;;;23.00;43.14
12897;BME280;6516;35.028;32.372;2022-12-29T10:05:48;100979.00;;;23.18;43.84
12897;BME280;6516;35.028;32.372;2022-12-29T10:08:28;100980.28;;;23.11;44.64
12897;BME280;6516;35.028;32.372;2022-12-29T10:11:08;100986.06;;;23.21;43.44
12897;BME280;6516;35.028;32.372;2022-12-29T10:13:55;100985.66;;;23.11;43.92
12897;BME280;6516;35.028;32.372;2022-12-29T10:16:39;100984.44;;;23.01;44.59
12897;BME280;6516;35.028;32.372;2022-12-29T10:19:24;100989.53;;;22.75;45.19
12897;BME280;6516;35.028;32.372;2022-12-29T10:22:08;100990.28;;;22.27;46.55
12897;BME280;6516;35.028;32.372;2022-12-29T10:24:41;100995.06;;;21.87;48.15
12897;BME280;6516;35.028;32.372;2022-12-29T10:27:13;100993.81;;;21.58;48.76
12897;BME280;6516;35.028;32.372;2022-12-29T10:29:43;100999.50;;;21.15;49.41
12897;BME280;6516;35.028;32.372;2022-12-29T10:32:27;100989.03;;;20.72;51.06
12897;BME280;6516;35.028;32.372;2022-12-29T10:35:05;100986.06;;;20.78;51.68
12897;BME280;6516;35.028;32.372;2022-12-29T10:37:41;100986.69;;;21.03;50.87
12897;BME280;6516;35.028;32.372;2022-12-29T10:40:25;100970.97;;;21.33;50.14
12897;BME280;6516;35.028;32.372;2022-12-29T10:42:57;100985.56;;;21.44;49.30
12897;BME280;6516;35.028;32.372;2022-12-29T10:45:29;100974.91;;;21.61;48.67
12897;BME280;6516;35.028;32.372;2022-12-29T10:48:01;100969.91;;;21.89;47.99
12897;BME280;6516;35.028;32.372;2022-12-29T10:50:33;100970.50;;;21.60;47.08
12897;BME280;6516;35.028;32.372;2022-12-29T10:53:03;100963.91;;;21.84;46.74
12897;BME280;6516;35.028;32.372;2022-12-29T10:55:35;100970.88;;;22.05;46.89
12897;BME280;6516;35.028;32.372;2022-12-29T10:58:05;100965.03;;;22.31;46.32
12897;BME280;6516;35.028;32.372;2022-12-29T11:00:38;100959.81;;;22.45;45.79
12897;BME280;6516;35.028;32.372;2022-12-29T11:06:25;100959.00;;;22.60;44.92
12897;BME280;6516;35.028;32.372;2022-12-29T11:08:57;100953.47;;;22.63;44.95
12897;BME280;6516;35.028;32.372;2022-12-29T11:11:27;100955.16;;;22.49;44.88
12897;BME280;6516;35.028;32.372;2022-12-29T11:14:07;100952.31;;;22.52;44.64
12897;BME280;6516;35.028;32.372;2022-12-29T11:16:40;100953.50;;;22.46;44.42
12897;BME280;6516;35.028;32.372;2022-12-29T11:19:20;100954.84;;;22.38;45.33
12897;BME280;6516;35.028;32.372;2022-12-29T11:21:50;100949.84;;;22.47;45.31
12897;BME280;6516;35.028;32.372;2022-12-29T11:24:21;100951.34;;;22.53;44.89
12897;BME280;6516;35.028;32.372;2022-12-29T11:26:54;100951.59;;;22.48;44.72
12897;BME280;6516;35.028;32.372;2022-12-29T11:29:28;100953.00;;;22.55;44.74
12897;BME280;6516;35.028;32.372;2022-12-29T11:31:57;100954.56;;;22.59;45.10
12897;BME280;6516;35.028;32.372;2022-12-29T11:34:30;100954.06;;;22.68;44.92
12897;BME280;6516;35.028;32.372;2022-12-29T11:37:03;100952.53;;;22.47;45.66
12897;BME280;6516;35.028;32.372;2022-12-29T11:39:38;100955.13;;;22.66;46.05
12897;BME280;6516;35.028;32.372;2022-12-29T11:42:14;100955.06;;;22.50;45.57
12897;BME280;6516;35.028;32.372;2022-12-29T11:44:45;100955.47;;;22.26;45.63
12897;BME280;6516;35.028;32.372;2022-12-29T11:47:23;100943.09;;;22.06;46.89
12897;BME280;6516;35.028;32.372;2022-12-29T11:49:56;100962.69;;;22.08;46.42
12897;BME280;6516;35.028;32.372;2022-12-29T11:52:30;100951.28;;;22.03;45.98
12897;BME280;6516;35.028;32.372;2022-12-29T11:55:02;100950.03;;;22.10;45.67
12897;BME280;6516;35.028;32.372;2022-12-29T11:57:32;100949.81;;;21.98;46.71
12897;BME280;6516;35.028;32.372;2022-12-29T12:00:05;100949.66;;;21.84;46.74
12897;BME280;6516;35.028;32.372;2022-12-29T12:02:50;100947.69;;;21.69;46.81
12897;BME280;6516;35.028;32.372;2022-12-29T12:05:30;100952.91;;;21.90;46.25
12897;BME280;6516;35.028;32.372;2022-12-29T12:08:10;100950.91;;;21.94;46.18
12897;BME280;6516;35.028;32.372;2022-12-29T12:10:43;100949.63;;;22.01;46.83
12897;BME280;6516;35.028;32.372;2022-12-29T12:13:22;100952.50;;;22.15;46.47
12897;BME280;6516;35.028;32.372;2022-12-29T12:15:57;100953.00;;;22.21;46.06
12897;BME280;6516;35.028;32.372;2022-12-29T12:18:44;100945.56;;;22.11;46.21
12897;BME280;6516;35.028;32.372;2022-12-29T12:21:18;100952.50;;;22.15;46.88
12897;BME280;6516;35.028;32.372;2022-12-29T12:24:02;100949.00;;;22.13;46.86
12897;BME280;6516;35.028;32.372;2022-12-29T12:26:52;100956.09;;;22.31;48.59
12897;BME280;6516;35.028;32.372;2022-12-29T12:29:26;100962.09;;;22.36;48.79
12897;BME280;6516;35.028;32.372;2022-12-29T12:32:02;100955.44;;;22.43;48.74
12897;BME280;6516;35.028;32.372;2022-12-29T12:34:38;100958.56;;;22.35;48.83
12897;BME280;6516;35.028;32.372;2022-12-29T12:37:19;100962.63;;;22.25;49.04
12897;BME280;6516;35.028;32.372;2022-12-29T12:40:22;100958.22;;;22.24;49.26
12897;BME280;6516;35.028;32.372;2022-12-29T12:43:12;100964.34;;;22.11;49.53
12897;BME280;6516;35.028;32.372;2022-12-29T12:45:59;100961.03;;;22.06;49.44
12897;BME280;6516;35.028;32.372;2022-12-29T12:48:56;100961.38;;;21.98;49.27
12897;BME280;6516;35.028;32.372;2022-12-29T12:51:51;100963.16;;;21.99;49.70
12897;BME280;6516;35.028;32.372;2022-12-29T12:54:36;100960.22;;;21.70;50.75
12897;BME280;6516;35.028;32.372;2022-12-29T12:57:19;100970.63;;;21.57;51.63
12897;BME280;6516;35.028;32.372;2022-12-29T12:59:59;100967.03;;;21.58;51.35
12897;BME280;6516;35.028;32.372;2022-12-29T13:02:43;100974.00;;;21.44;51.98
12897;BME280;6516;35.028;32.372;2022-12-29T13:05:31;100979.09;;;21.31;52.19
12897;BME280;6516;35.028;32.372;2022-12-29T13:08:26;100978.09;;;21.15;53.16
12897;BME280;6516;35.028;32.372;2022-12-29T13:11:13;100974.31;;;21.01;52.90
12897;BME280;6516;35.028;32.372;2022-12-29T13:14:02;100979.47;;;20.85;53.12
12897;BME280;6516;35.028;32.372;2022-12-29T13:16:45;100972.75;;;20.77;53.72
12897;BME280;6516;35.028;32.372;2022-12-29T13:19:20;100971.31;;;20.70;54.46
12897;BME280;6516;35.028;32.372;2022-12-29T13:22:01;100976.16;;;20.62;54.92